sensor_id;sensor_type;location;lat;lon;timestamp;P1;durP1;ratioP1;P2;durP2;ratioP2
56631;SDS011;42503;39.928;-75.152;2023-02-05T00:09:35;1.98;;;1.17;;
56631;SDS011;42503;39.928;-75.152;2023-02-05T00:19:40;3.53;;;1.02;;
56631;SDS011;42503;39.928;-75.152;2023-02-05T00:29:41;3.22;;;1.45;;
56631;SDS011;42503;39.928;-75.152;2023-02-05T00:39:43;4.10;;;1.08;;
56631;SDS011;42503;39.928;-75.152;2023-02-05T00:49:47;1.05;;;0.70;;
56631;SDS011;42503;39.928;-75.152;2023-02-05T00:59:49;4.15;;;1.00;;
56631;SDS011;42503;39.928;-75.152;2023-02-05T01:09:53;3.15;;;1.10;;
56631;SDS011;42503;39.928;-75.152;2023-02-05T01:19:57;1.67;;;0.90;;
56631;SDS011;42503;39.928;-75.152;2023-02-05T01:29:59;12.20;;;1.55;;
56631;SDS011;42503;39.928;-75.152;2023-02-05T01:40:03;21.50;;;2.13;;
56631;SDS011;42503;39.928;-75.152;2023-02-05T01:50:05;8.57;;;1.60;;
56631;SDS011;42503;39.928;-75.152;2023-02-05T02:00:07;6.93;;;1.30;;
56631;SDS011;42503;39.928;-75.152;2023-02-05T02:10:10;7.53;;;1.38;;
56631;SDS011;42503;39.928;-75.152;2023-02-05T02:20:15;5.50;;;1.10;;
56631;SDS011;42503;39.928;-75.152;2023-02-05T02:30:23;1.73;;;1.07;;
56631;SDS011;42503;39.928;-75.152;2023-02-05T02:40:37;1.83;;;0.90;;
56631;SDS011;42503;39.928;-75.152;2023-02-05T02:50:49;3.10;;;1.40;;
56631;SDS011;42503;39.928;-75.152;2023-02-05T03:00:53;2.17;;;1.02;;
56631;SDS011;42503;39.928;-75.152;2023-02-05T03:21:10;29.65;;;2.72;;
56631;SDS011;42503;39.928;-75.152;2023-02-05T03:51:53;4.53;;;1.40;;
56631;SDS011;42503;39.928;-75.152;2023-02-05T04:02:00;5.43;;;1.20;;
56631;SDS011;42503;39.928;-75.152;2023-02-05T04:12:04;5.63;;;1.30;;
56631;SDS011;42503;39.928;-75.152;2023-02-05T04:22:05;3.53;;;0.90;;
56631;SDS011;42503;39.928;-75.152;2023-02-05T04:32:07;7.70;;;1.13;;
56631;SDS011;42503;39.928;-75.152;2023-02-05T04:42:08;3.40;;;1.10;;
56631;SDS011;42503;39.928;-75.152;2023-02-05T04:52:10;5.88;;;1.23;;
56631;SDS011;42503;39.928;-75.152;2023-02-05T05:02:11;4.22;;;1.33;;
56631;SDS011;42503;39.928;-75.152;2023-02-05T05:12:12;6.30;;;1.63;;
56631;SDS011;42503;39.928;-75.152;2023-02-05T05:22:14;5.95;;;1.20;;
56631;SDS011;42503;39.928;-75.152;2023-02-05T05:32:16;5.40;;;1.25;;
56631;SDS011;42503;39.928;-75.152;2023-02-05T05:42:20;5.28;;;1.25;;
56631;SDS011;42503;39.928;-75.152;2023-02-05T05:52:42;2.95;;;1.40;;
56631;SDS011;42503;39.928;-75.152;2023-02-05T06:02:44;3.78;;;1.50;;
56631;SDS011;42503;39.928;-75.152;2023-02-05T06:12:47;1.95;;;1.20;;
56631;SDS011;42503;39.928;-75.152;2023-02-05T06:22:48;2.05;;;1.15;;
56631;SDS011;42503;39.928;-75.152;2023-02-05T06:32:52;1.63;;;1.00;;
56631;SDS011;42503;39.928;-75.152;2023-02-05T06:42:54;1.52;;;1.00;;
56631;SDS011;42503;39.928;-75.152;2023-02-05T06:52:55;1.13;;;0.90;;
56631;SDS011;42503;39.928;-75.152;2023-02-05T07:02:59;3.33;;;1.20;;
56631;SDS011;42503;39.928;-75.152;2023-02-05T07:13:01;2.00;;;0.80;;
56631;SDS011;42503;39.928;-75.152;2023-02-05T07:23:02;2.35;;;0.73;;
56631;SDS011;42503;39.928;-75.152;2023-02-05T07:33:05;2.33;;;0.77;;
56631;SDS011;42503;39.928;-75.152;2023-02-05T07:43:12;0.70;;;0.70;;
56631;SDS011;42503;39.928;-75.152;2023-02-05T07:53:13;3.92;;;0.75;;
56631;SDS011;42503;39.928;-75.152;2023-02-05T08:03:15;1.55;;;0.95;;
56631;SDS011;42503;39.928;-75.152;2023-02-05T08:13:16;1.75;;;0.88;;
56631;SDS011;42503;39.928;-75.152;2023-02-05T08:23:17;1.20;;;0.60;;
56631;SDS011;42503;39.928;-75.152;2023-02-05T08:33:19;0.60;;;0.60;;
56631;SDS011;42503;39.928;-75.152;2023-02-05T08:43:20;1.33;;;0.70;;
56631;SDS011;42503;39.928;-75.152;2023-02-05T08:53:21;1.70;;;0.77;;
56631;SDS011;42503;39.928;-75.152;2023-02-05T09:03:23;0.88;;;0.75;;
56631;SDS011;42503;39.928;-75.152;2023-02-05T09:13:24;1.27;;;0.73;;
56631;SDS011;42503;39.928;-75.152;2023-02-05T09:23:26;0.80;;;0.63;;
56631;SDS011;42503;39.928;-75.152;2023-02-05T09:33:27;1.10;;;0.82;;
56631;SDS011;42503;39.928;-75.152;2023-02-05T09:53:40;1.10;;;0.80;;
56631;SDS011;42503;39.928;-75.152;2023-02-05T10:03:47;0.80;;;0.70;;
56631;SDS011;42503;39.928;-75.152;2023-02-05T10:14:02;1.45;;;0.70;;
56631;SDS011;42503;39.928;-75.152;2023-02-05T10:44:58;1.80;;;0.73;;
56631;SDS011;42503;39.928;-75.152;2023-02-05T10:55:09;0.60;;;0.60;;
56631;SDS011;42503;39.928;-75.152;2023-02-05T11:15:29;0.40;;;0.40;;
56631;SDS011;42503;39.928;-75.152;2023-02-05T11:25:32;0.85;;;0.77;;
56631;SDS011;42503;39.928;-75.152;2023-02-05T11:35:34;1.20;;;0.80;;
56631;SDS011;42503;39.928;-75.152;2023-02-05T11:45:37;0.93;;;0.60;;
56631;SDS011;42503;39.928;-75.152;2023-02-05T11:55:39;0.77;;;0.68;;
56631;SDS011;42503;39.928;-75.152;2023-02-05T12:05:43;0.80;;;0.80;;
56631;SDS011;42503;39.928;-75.152;2023-02-05T12:16:06;0.70;;;0.47;;
56631;SDS011;42503;39.928;-75.152;2023-02-05T12:26:28;0.75;;;0.40;;
56631;SDS011;42503;39.928;-75.152;2023-02-05T12:36:52;0.65;;;0.60;;
56631;SDS011;42503;39.928;-75.152;2023-02-05T12:47:01;1.10;;;0.70;;
56631;SDS011;42503;39.928;-75.152;2023-02-05T12:57:12;1.80;;;0.70;;
56631;SDS011;42503;39.928;-75.152;2023-02-05T13:17:33;1.02;;;0.77;;
56631;SDS011;42503;39.928;-75.152;2023-02-05T13:27:47;1.07;;;0.57;;
56631;SDS011;42503;39.928;-75.152;2023-02-05T13:38:14;0.60;;;0.60;;
56631;SDS011;42503;39.928;-75.152;2023-02-05T14:09:08;0.70;;;0.70;;
56631;SDS011;42503;39.928;-75.152;2023-02-05T14:19:19;4.38;;;1.10;;
56631;SDS011;42503;39.928;-75.152;2023-02-05T14:29:42;1.05;;;0.90;;
56631;SDS011;42503;39.928;-75.152;2023-02-05T14:39:45;2.63;;;1.45;;
56631;SDS011;42503;39.928;-75.152;2023-02-05T14:49:47;3.25;;;0.98;;
56631;SDS011;42503;39.928;-75.152;2023-02-05T14:59:54;4.50;;;0.93;;
56631;SDS011;42503;39.928;-75.152;2023-02-05T15:10:11;3.53;;;1.00;;
56631;SDS011;42503;39.928;-75.152;2023-02-05T15:20:34;1.35;;;0.90;;
56631;SDS011;42503;39.928;-75.152;2023-02-05T15:30:46;1.10;;;0.80;;
56631;SDS011;42503;39.928;-75.152;2023-02-05T15:40:54;2.17;;;0.98;;
56631;SDS011;42503;39.928;-75.152;2023-02-05T16:01:36;3.28;;;1.05;;
56631;SDS011;42503;39.928;-75.152;2023-02-05T16:11:45;3.28;;;1.17;;
56631;SDS011;42503;39.928;-75.152;2023-02-05T16:21:50;3.30;;;0.90;;
56631;SDS011;42503;39.928;-75.152;2023-02-05T16:31:58;1.25;;;1.00;;
56631;SDS011;42503;39.928;-75.152;2023-02-05T16:42:06;1.25;;;0.95;;
56631;SDS011;42503;39.928;-75.152;2023-02-05T16:52:32;1.30;;;0.93;;
56631;SDS011;42503;39.928;-75.152;2023-02-05T17:02:38;1.30;;;1.17;;
56631;SDS011;42503;39.928;-75.152;2023-02-05T17:12:45;8.82;;;1.40;;
56631;SDS011;42503;39.928;-75.152;2023-02-05T17:23:12;4.75;;;1.10;;
56631;SDS011;42503;39.928;-75.152;2023-02-05T17:33:16;3.85;;;1.05;;
56631;SDS011;42503;39.928;-75.152;2023-02-05T17:43:21;2.35;;;0.90;;
56631;SDS011;42503;39.928;-75.152;2023-02-05T17:53:25;4.43;;;1.00;;
56631;SDS011;42503;39.928;-75.152;2023-02-05T18:03:29;1.65;;;0.90;;
56631;SDS011;42503;39.928;-75.152;2023-02-05T18:13:31;1.45;;;0.90;;
56631;SDS011;42503;39.928;-75.152;2023-02-05T18:23:32;1.40;;;1.02;;
56631;SDS011;42503;39.928;-75.152;2023-02-05T18:33:34;3.40;;;1.02;;
56631;SDS011;42503;39.928;-75.152;2023-02-05T18:43:36;1.83;;;0.93;;
56631;SDS011;42503;39.928;-75.152;2023-02-05T18:53:40;1.17;;;0.80;;
56631;SDS011;42503;39.928;-75.152;2023-02-05T19:03:46;2.45;;;0.98;;
56631;SDS011;42503;39.928;-75.152;2023-02-05T19:13:55;2.05;;;1.00;;
56631;SDS011;42503;39.928;-75.152;2023-02-05T19:23:58;1.38;;;0.80;;
56631;SDS011;42503;39.928;-75.152;2023-02-05T19:34:05;3.65;;;1.05;;
56631;SDS011;42503;39.928;-75.152;2023-02-05T19:44:07;1.02;;;0.80;;
56631;SDS011;42503;39.928;-75.152;2023-02-05T19:54:12;1.00;;;0.85;;
56631;SDS011;42503;39.928;-75.152;2023-02-05T20:04:15;1.42;;;0.82;;
56631;SDS011;42503;39.928;-75.152;2023-02-05T20:14:23;1.02;;;0.80;;
56631;SDS011;42503;39.928;-75.152;2023-02-05T20:24:25;0.80;;;0.80;;
56631;SDS011;42503;39.928;-75.152;2023-02-05T20:34:27;1.17;;;0.80;;
56631;SDS011;42503;39.928;-75.152;2023-02-05T20:44:31;1.15;;;0.95;;
56631;SDS011;42503;39.928;-75.152;2023-02-05T20:54:36;1.52;;;0.75;;
56631;SDS011;42503;39.928;-75.152;2023-02-05T21:04:37;0.77;;;0.77;;
56631;SDS011;42503;39.928;-75.152;2023-02-05T21:14:38;0.90;;;0.80;;
56631;SDS011;42503;39.928;-75.152;2023-02-05T21:24:40;1.15;;;0.90;;
56631;SDS011;42503;39.928;-75.152;2023-02-05T21:34:41;0.70;;;0.60;;
56631;SDS011;42503;39.928;-75.152;2023-02-05T21:44:43;4.18;;;1.13;;
56631;SDS011;42503;39.928;-75.152;2023-02-05T21:54:48;8.77;;;1.20;;
56631;SDS011;42503;39.928;-75.152;2023-02-05T22:04:51;5.38;;;1.20;;
56631;SDS011;42503;39.928;-75.152;2023-02-05T22:14:52;1.88;;;1.00;;
56631;SDS011;42503;39.928;-75.152;2023-02-05T22:24:53;1.40;;;0.95;;
56631;SDS011;42503;39.928;-75.152;2023-02-05T22:34:55;10.82;;;1.40;;
56631;SDS011;42503;39.928;-75.152;2023-02-05T22:44:56;5.55;;;1.40;;
56631;SDS011;42503;39.928;-75.152;2023-02-05T22:54:58;11.32;;;1.63;;
56631;SDS011;42503;39.928;-75.152;2023-02-05T23:04:59;9.15;;;1.58;;
56631;SDS011;42503;39.928;-75.152;2023-02-05T23:15:06;28.52;;;2.00;;
56631;SDS011;42503;39.928;-75.152;2023-02-05T23:25:07;20.15;;;1.95;;
56631;SDS011;42503;39.928;-75.152;2023-02-05T23:35:09;20.58;;;2.88;;
56631;SDS011;42503;39.928;-75.152;2023-02-05T23:45:10;31.13;;;3.10;;
56631;SDS011;42503;39.928;-75.152;2023-02-05T23:55:12;32.95;;;3.17;;
